KMHK/MHK METAR and TAF weather

Enter ICAO airport designator
Station Type Date Time Source
KMHK METAR 2021/04/13 05:52 UTC NOAA

KMHK 130552Z AUTO 00000KT 10SM CLR 02/M01 A3016 RMK AO2 SLP218 T00221011 10144 20017 401500017 53023


Station Type Date Time Source
KMHK Decoded METAR 2021/04/13 05:52 UTC NOAA

MANHATTAN REGIONAL AIRPORT, KS, United States (KMHK) 39-08N 96-41W 317M
Apr 13, 2021 - 01:52 AM EDT / 2021.04.13 0552 UTC
Wind: Calm:0
Visibility: 10 mile(s):0
Sky conditions: clear
Temperature: 36.0 F (2.2 C)
Dew Point: 30.0 F (-1.1 C)
Relative Humidity: 78%
Pressure (altimeter): 30.16 in. Hg (1021 hPa)
Pressure tendency: 0.07 inches (2.3 hPa) higher than three hours ago
ob: KMHK 130552Z AUTO 00000KT 10SM CLR 02/M01 A3016 RMK AO2 SLP218 T00221011 10144 20017 401500017 53023
cycle: 6

Station Type Date Time Source
KMHK TAF 2021/04/13 06:22 UTC NOAA

TAF KMHK 130520Z 1306/1406 34006KT P6SM SCT250

Example: see airport list